Grønbæk Airfield

DK-0023 · 中日德兰大区, 丹麦

使用的METAR站距离机场32 km。
罗盘
风向 的 风向 180° Grønbæk Airfield 6/24
风: 8 kt, 3 beaufort

3 kt

7 kt
改变
0 ft 1.000 2.000 3.000 4.000 5.000
Cloud Cloud Cloud Cloud Cloud Cloud
BKN 1.300
METAR EKKA 231620Z AUTO 18008KT 9999 RA BKN013/// 04/03 Q0987

METAR Grønbæk Airfield - DK-0023

Grønbæk Airfield是,丹麦中的小机场。 该机场位于纬度56,27112和经度9,62524。 该机场有一条跑道: 6/24. 这个机场没有ICAO代码,我们使用DK-0023作为参考。 机场在Kobenhavn FIR中。

该航空气象观测是针对Karup Airport在2024年2月23日 17:20, 当地时间进行的。

机场观察

风向为180°,速度为8 kt。

可见度为10 km 或者更多。

有碎云在1.300 ft的高度。 破损或更高的上限为1.300 ft。

当前天气为雨。 温度为4 °C,阵风为-1 °C。 露点为3 °C,相对湿度为93%。 海平面上的气压为987 hPa (QNH)。

白天

今天,太阳从07:29升起,在17:40降落。 这适用于Grønbæk Airfield,世界夏令时可能有所不同。 当地时间与世界标准时间之间的时差为+1 小时。 当前,没有夏令时有效。

公司介绍

我们没有关于这个机场的公司信息。

体会

到Vliegles.nl去找飞行课程,跳伞和其他飞行体验。 浏览页面,了解Grønbæk Airfield附近所有可用的活动。 你也可以使用搜索功能来寻找你所在地附近的特定飞行课程、跳伞或其他飞行体验。

跑道

Id 标题 侧风 逆风 侧风 %
6/24 067°-247° 7 kt 3 kt 92 %

逆风成分最大的方向会被突出显示,并用于横风计算。 这并不一定意味着这个方向在使用。

乌云

1.300 ft BKN 碎云

温度 & 天气

天气
温度 4 °C
露点 3 °C
相对湿度 93%
风寒 -1 °C
Kp-index 0 (0-9)

白天

日出
07:31 (13:37)
中午
12:36
日落
17:42

小工具

你想在你的网站上有一个关于Grønbæk Airfield的当前航空天气(METAR)的小部件吗?

显示HTML代码
?>